createdAt,value
2023-03-02T00:02:22.408Z,0.29
2023-03-02T00:04:50.158Z,0.24
2023-03-02T00:07:14.551Z,-0.07
2023-03-02T00:09:37.643Z,-0.06
2023-03-02T00:11:59.343Z,0.00
2023-03-02T00:14:20.888Z,0.03
2023-03-02T00:16:42.381Z,0.10
2023-03-02T00:19:03.855Z,0.08
2023-03-02T00:21:25.572Z,0.11
2023-03-02T00:23:47.014Z,0.19
2023-03-02T00:26:08.519Z,0.18
2023-03-02T00:28:30.521Z,0.17
2023-03-02T00:30:51.964Z,0.19
2023-03-02T00:33:13.497Z,0.21
2023-03-02T00:35:41.400Z,0.25
2023-03-02T00:38:02.852Z,0.22
2023-03-02T00:40:24.314Z,0.18
2023-03-02T00:42:45.760Z,0.16
2023-03-02T00:45:08.165Z,0.18
2023-03-02T00:47:29.887Z,0.12
2023-03-02T00:49:51.328Z,0.03
2023-03-02T00:52:12.746Z,-0.06
2023-03-02T00:54:34.194Z,-0.05
2023-03-02T00:56:55.714Z,-0.05
2023-03-02T00:59:26.859Z,-0.09
2023-03-02T01:01:57.789Z,-0.08
2023-03-02T01:04:19.383Z,-0.05
2023-03-02T01:06:47.164Z,-0.05
2023-03-02T01:09:08.628Z,0.02
2023-03-02T01:11:30.119Z,-0.08
2023-03-02T01:13:51.680Z,-0.43
2023-03-02T01:16:14.155Z,-0.34
2023-03-02T01:18:38.733Z,-0.32
2023-03-02T01:21:05.373Z,-0.29
2023-03-02T01:23:26.828Z,-0.42
2023-03-02T01:25:48.275Z,-0.45
2023-03-02T01:28:09.705Z,-0.42
2023-03-02T01:30:31.150Z,-0.49
2023-03-02T01:32:52.638Z,-0.50
2023-03-02T01:35:14.345Z,-0.40
2023-03-02T01:37:35.790Z,-0.55
2023-03-02T01:39:57.254Z,-0.85
2023-03-02T01:42:18.818Z,-0.85
2023-03-02T01:44:48.040Z,-0.75
2023-03-02T01:47:20.744Z,-0.73
2023-03-02T01:49:48.130Z,-0.67
2023-03-02T01:52:12.207Z,-0.69
2023-03-02T01:54:33.709Z,-0.68
2023-03-02T01:57:00.322Z,-0.66
2023-03-02T01:59:23.449Z,-0.71
2023-03-02T02:01:50.572Z,-0.61
2023-03-02T02:04:13.017Z,-0.64
2023-03-02T02:06:51.460Z,-0.69
2023-03-02T02:09:16.372Z,-0.69
2023-03-02T02:11:37.887Z,-1.01
2023-03-02T02:14:01.044Z,-0.97
2023-03-02T02:16:22.524Z,-0.87
2023-03-02T02:18:44.454Z,-0.87
2023-03-02T02:21:07.839Z,-0.79
2023-03-02T02:23:54.128Z,-0.67
2023-03-02T02:26:25.236Z,-0.66
2023-03-02T02:28:57.612Z,-0.63
2023-03-02T02:31:28.042Z,-0.77
2023-03-02T02:33:55.291Z,-0.66
2023-03-02T02:36:21.459Z,-0.61
2023-03-02T02:38:47.966Z,-0.61
2023-03-02T02:41:17.416Z,-0.58
2023-03-02T02:43:38.864Z,-0.58
2023-03-02T02:46:02.064Z,-0.59
2023-03-02T02:48:25.480Z,-0.59
2023-03-02T02:50:47.464Z,-0.64
2023-03-02T02:53:20.157Z,-0.76
2023-03-02T02:55:42.808Z,-0.79
2023-03-02T02:58:13.667Z,-0.72
2023-03-02T03:00:36.427Z,-0.76
2023-03-02T03:03:04.967Z,-0.80
2023-03-02T03:05:26.450Z,-0.72
2023-03-02T03:07:47.936Z,-0.79
2023-03-02T03:10:40.944Z,-0.74
2023-03-02T03:13:02.499Z,-0.71
2023-03-02T03:15:23.949Z,-0.71
2023-03-02T03:17:56.800Z,-0.87
2023-03-02T03:20:19.638Z,-0.94
2023-03-02T03:22:41.106Z,-0.97
2023-03-02T03:25:02.670Z,-0.88
2023-03-02T03:27:24.600Z,-0.82
2023-03-02T03:29:50.462Z,-0.88
2023-03-02T03:32:12.056Z,-0.92
2023-03-02T03:34:40.613Z,-1.03
2023-03-02T03:37:02.191Z,-1.00
2023-03-02T03:39:23.618Z,-0.84
2023-03-02T03:41:45.318Z,-0.84
2023-03-02T03:44:06.892Z,-0.85
2023-03-02T03:46:28.705Z,-1.05
2023-03-02T03:48:50.230Z,-0.94
2023-03-02T03:51:11.771Z,-0.91
2023-03-02T03:53:34.112Z,-0.91
2023-03-02T03:55:57.150Z,-1.12
2023-03-02T03:58:19.373Z,-1.09
2023-03-02T04:00:40.815Z,-1.38
2023-03-02T04:03:02.446Z,-1.26
2023-03-02T04:05:23.961Z,-1.22
2023-03-02T04:07:45.494Z,-1.18
2023-03-02T04:10:08.959Z,-1.14
2023-03-02T04:12:35.229Z,-1.07
2023-03-02T04:14:57.066Z,-1.50
2023-03-02T04:17:18.537Z,-1.40
2023-03-02T04:19:40.940Z,-1.49
2023-03-02T04:22:04.232Z,-1.44
2023-03-02T04:24:25.750Z,-1.28
2023-03-02T04:26:49.092Z,-1.26
2023-03-02T04:29:12.038Z,-1.25
2023-03-02T04:31:34.264Z,-1.30
2023-03-02T04:33:55.785Z,-1.30
2023-03-02T04:36:17.330Z,-1.26
2023-03-02T04:38:38.922Z,-1.25
2023-03-02T04:41:00.476Z,-1.30
2023-03-02T04:43:22.077Z,-1.33
2023-03-02T04:45:43.524Z,-1.28
2023-03-02T04:48:06.697Z,-1.32
2023-03-02T04:50:28.196Z,-1.34
2023-03-02T04:52:50.514Z,-1.38
2023-03-02T04:55:20.212Z,-1.42
2023-03-02T04:57:41.683Z,-1.44
2023-03-02T05:00:04.919Z,-1.42
2023-03-02T05:02:26.573Z,-1.55
2023-03-02T05:04:48.078Z,-1.52
2023-03-02T05:07:09.681Z,-1.54
2023-03-02T05:09:31.143Z,-1.60
2023-03-02T05:11:56.661Z,-1.76
2023-03-02T05:14:18.080Z,-1.76
2023-03-02T05:16:41.813Z,-2.06
2023-03-02T05:19:05.261Z,-1.79
2023-03-02T05:21:26.911Z,-1.90
2023-03-02T05:23:48.857Z,-1.71
2023-03-02T05:26:10.980Z,-1.76
2023-03-02T05:28:33.460Z,-1.77
2023-03-02T05:30:54.906Z,-2.00
2023-03-02T05:33:17.077Z,-1.88
2023-03-02T05:35:38.913Z,-1.89
2023-03-02T05:38:00.446Z,-2.14
2023-03-02T05:40:22.064Z,-2.10
2023-03-02T05:42:44.399Z,-2.13
2023-03-02T05:45:07.992Z,-2.04
2023-03-02T05:47:29.461Z,-2.18
2023-03-02T05:49:50.903Z,-2.10
2023-03-02T05:52:12.362Z,-2.02
2023-03-02T05:54:33.818Z,-2.12
2023-03-02T05:56:55.327Z,-2.40
2023-03-02T05:59:16.783Z,-2.38
2023-03-02T06:01:38.810Z,-2.42
2023-03-02T06:04:00.301Z,-2.21
2023-03-02T06:06:21.752Z,-2.18
2023-03-02T06:08:43.747Z,-2.07
2023-03-02T06:11:05.247Z,-2.10
2023-03-02T06:13:26.812Z,-2.01
2023-03-02T06:15:48.259Z,-2.05
2023-03-02T06:18:09.738Z,-2.11
2023-03-02T06:20:31.284Z,-2.08
2023-03-02T06:22:52.891Z,-1.92
2023-03-02T06:25:17.913Z,-1.85
2023-03-02T06:27:40.653Z,-1.79
2023-03-02T06:30:02.435Z,-1.85
2023-03-02T06:32:24.056Z,-1.75
2023-03-02T06:34:45.511Z,-1.72
2023-03-02T06:37:06.982Z,-1.65
2023-03-02T06:39:28.401Z,-1.69
2023-03-02T06:41:50.250Z,-1.73
2023-03-02T06:44:12.230Z,-1.72
2023-03-02T06:46:33.942Z,-1.66
2023-03-02T06:48:55.518Z,-1.58
2023-03-02T06:51:17.921Z,-1.64
2023-03-02T06:53:39.487Z,-1.56
2023-03-02T06:56:00.952Z,-1.57
2023-03-02T06:58:22.426Z,-1.59
2023-03-02T07:00:43.901Z,-1.46
2023-03-02T07:03:05.467Z,-1.39
2023-03-02T07:05:27.209Z,-1.28
2023-03-02T07:07:48.757Z,-1.21
2023-03-02T07:10:12.304Z,-1.17
2023-03-02T07:12:34.129Z,-1.13
2023-03-02T07:14:55.616Z,-1.07
2023-03-02T07:17:17.123Z,-1.00
2023-03-02T07:19:40.781Z,-0.95
2023-03-02T07:22:02.428Z,-0.90
2023-03-02T07:24:23.869Z,-0.90
2023-03-02T07:26:45.395Z,-0.84
2023-03-02T07:29:06.839Z,-0.83
2023-03-02T07:31:28.796Z,-0.74
2023-03-02T07:33:50.264Z,-0.67
2023-03-02T07:36:11.753Z,-0.76
2023-03-02T07:38:33.337Z,-0.78
2023-03-02T07:40:54.909Z,-0.65
2023-03-02T07:43:16.368Z,-0.64
2023-03-02T07:45:38.456Z,-0.59
2023-03-02T07:47:59.932Z,-0.50
2023-03-02T07:50:21.435Z,-0.42
2023-03-02T07:52:43.261Z,-0.39
2023-03-02T07:55:05.116Z,-0.39
2023-03-02T07:57:26.569Z,-0.46
2023-03-02T07:59:48.169Z,-0.41
2023-03-02T08:02:14.467Z,-0.27
2023-03-02T08:04:36.099Z,-0.24
2023-03-02T08:06:57.573Z,-0.20
2023-03-02T08:09:19.102Z,-0.09
2023-03-02T08:11:41.887Z,-0.07
2023-03-02T08:14:03.630Z,-0.02
2023-03-02T08:16:26.468Z,0.04
2023-03-02T08:18:48.098Z,0.19
2023-03-02T08:21:20.201Z,0.22
2023-03-02T08:23:42.004Z,0.40
2023-03-02T08:26:03.566Z,0.64
2023-03-02T08:28:25.107Z,0.74
2023-03-02T08:30:55.161Z,0.88
2023-03-02T08:33:16.651Z,0.90
2023-03-02T08:35:38.131Z,0.86
2023-03-02T08:38:02.501Z,1.04
2023-03-02T08:40:24.026Z,1.18
2023-03-02T08:42:45.462Z,1.38
2023-03-02T08:45:07.510Z,1.45
2023-03-02T08:47:28.978Z,1.71
2023-03-02T08:49:51.266Z,1.70
2023-03-02T08:52:15.233Z,1.89
2023-03-02T08:54:36.908Z,2.10
2023-03-02T08:56:58.421Z,2.21
2023-03-02T08:59:21.676Z,2.34
2023-03-02T09:01:43.245Z,2.39
2023-03-02T09:04:06.834Z,2.42
2023-03-02T09:06:29.701Z,2.60
2023-03-02T09:08:51.200Z,2.65
2023-03-02T09:11:12.898Z,2.80
2023-03-02T09:13:34.648Z,2.85
2023-03-02T09:15:56.937Z,2.96
2023-03-02T09:18:18.412Z,3.06
2023-03-02T09:20:39.828Z,3.10
2023-03-02T09:23:01.363Z,3.33
2023-03-02T09:25:22.896Z,3.48
2023-03-02T09:27:45.434Z,3.43
2023-03-02T09:30:09.020Z,3.48
2023-03-02T09:32:30.571Z,3.81
2023-03-02T09:34:52.112Z,3.80
2023-03-02T09:37:13.582Z,3.93
2023-03-02T09:39:35.078Z,3.97
2023-03-02T09:42:10.925Z,4.15
2023-03-02T09:44:57.337Z,4.36
2023-03-02T09:47:35.593Z,4.41
2023-03-02T09:50:30.410Z,4.38
2023-03-02T09:53:30.867Z,4.57
2023-03-02T09:55:56.457Z,4.83
2023-03-02T09:58:20.846Z,4.86
2023-03-02T10:00:44.047Z,5.06
2023-03-02T10:03:19.375Z,5.15
2023-03-02T10:05:44.134Z,5.09
2023-03-02T10:08:06.164Z,5.08
2023-03-02T10:10:45.266Z,5.18
2023-03-02T10:13:21.249Z,5.33
2023-03-02T10:15:58.015Z,5.43
2023-03-02T10:18:28.676Z,5.79
2023-03-02T10:21:01.831Z,5.93
2023-03-02T10:23:35.863Z,6.06
2023-03-02T10:26:12.382Z,6.30
2023-03-02T10:28:41.325Z,6.39
2023-03-02T10:31:14.594Z,6.39
2023-03-02T10:33:39.088Z,6.48
2023-03-02T10:36:01.240Z,6.56
2023-03-02T10:38:25.329Z,6.61
2023-03-02T10:40:50.368Z,6.66
2023-03-02T10:43:16.677Z,6.81
2023-03-02T10:45:38.144Z,6.87
2023-03-02T10:48:13.109Z,6.80
2023-03-02T10:50:35.550Z,6.90
2023-03-02T10:53:01.100Z,7.00
2023-03-02T10:55:23.537Z,7.03
2023-03-02T10:57:46.420Z,7.18
2023-03-02T11:00:15.843Z,7.15
2023-03-02T11:02:37.861Z,7.22
2023-03-02T11:05:13.570Z,7.39
2023-03-02T11:07:35.004Z,7.43
2023-03-02T11:09:57.455Z,7.41
2023-03-02T11:12:19.008Z,7.45
2023-03-02T11:14:40.812Z,7.47
2023-03-02T11:17:03.528Z,7.53
2023-03-02T11:19:37.438Z,7.67
2023-03-02T11:22:30.963Z,7.73
2023-03-02T11:24:58.046Z,7.86
2023-03-02T11:27:25.161Z,7.97
2023-03-02T11:30:02.019Z,8.00
2023-03-02T11:32:45.188Z,8.07
2023-03-02T11:35:13.608Z,8.14
2023-03-02T11:37:40.994Z,8.17
2023-03-02T11:40:22.851Z,8.18
2023-03-02T11:42:45.417Z,8.24
2023-03-02T11:45:13.713Z,8.24
2023-03-02T11:47:37.695Z,8.36
2023-03-02T11:50:05.277Z,8.44
2023-03-02T11:52:30.376Z,8.51
2023-03-02T11:55:04.628Z,8.55
2023-03-02T11:57:35.813Z,8.51
2023-03-02T11:59:59.787Z,8.50
2023-03-02T12:02:22.179Z,8.49
2023-03-02T12:04:43.845Z,8.51
2023-03-02T12:07:19.472Z,8.58
2023-03-02T12:09:40.999Z,8.67
2023-03-02T12:12:24.204Z,8.69
2023-03-02T12:14:45.696Z,8.77
2023-03-02T12:17:27.467Z,8.89
2023-03-02T12:19:50.892Z,8.93
2023-03-02T12:22:14.622Z,8.95
2023-03-02T12:24:38.740Z,8.95
2023-03-02T12:27:06.712Z,8.99
2023-03-02T12:29:49.132Z,9.02
2023-03-02T12:32:31.593Z,9.20
2023-03-02T12:34:59.801Z,9.15
2023-03-02T12:37:46.563Z,9.30
2023-03-02T12:40:40.622Z,9.27
2023-03-02T12:43:33.832Z,9.38
2023-03-02T12:46:33.812Z,9.49
2023-03-02T12:48:59.926Z,9.57
2023-03-02T12:51:24.556Z,9.63
2023-03-02T12:53:46.118Z,9.65
2023-03-02T12:56:08.991Z,9.80
2023-03-02T12:58:32.515Z,9.93
2023-03-02T13:00:58.141Z,9.97
2023-03-02T13:03:20.502Z,9.95
2023-03-02T13:05:42.288Z,9.93
2023-03-02T13:08:07.453Z,10.00
2023-03-02T13:10:39.895Z,10.18
2023-03-02T13:13:02.988Z,10.30
2023-03-02T13:15:24.501Z,10.35
2023-03-02T13:17:54.960Z,10.27
2023-03-02T13:20:16.924Z,10.28
2023-03-02T13:22:38.840Z,10.34
2023-03-02T13:25:05.441Z,10.31
2023-03-02T13:27:27.972Z,10.36
2023-03-02T13:29:50.189Z,10.42
2023-03-02T13:32:17.658Z,10.43
2023-03-02T13:34:46.664Z,10.40
2023-03-02T13:37:20.148Z,10.43
2023-03-02T13:39:41.599Z,10.53
2023-03-02T13:42:03.728Z,10.50
2023-03-02T13:44:33.443Z,10.46
2023-03-02T13:46:55.287Z,10.50
2023-03-02T13:49:30.631Z,10.49
2023-03-02T13:52:00.922Z,10.53
2023-03-02T13:54:27.483Z,10.58
2023-03-02T13:56:51.319Z,10.58
2023-03-02T13:59:14.850Z,10.63
2023-03-02T14:01:36.353Z,10.59
2023-03-02T14:04:00.451Z,10.63
2023-03-02T14:06:22.461Z,10.62
2023-03-02T14:08:43.950Z,10.62
2023-03-02T14:11:06.333Z,10.62
2023-03-02T14:13:37.764Z,10.66
2023-03-02T14:15:59.270Z,10.62
2023-03-02T14:18:27.309Z,10.49
2023-03-02T14:20:48.837Z,10.53
2023-03-02T14:23:10.349Z,10.54
2023-03-02T14:25:31.839Z,10.55
2023-03-02T14:27:53.310Z,10.61
2023-03-02T14:30:20.400Z,10.63
2023-03-02T14:32:41.905Z,10.60
2023-03-02T14:35:03.509Z,10.67
2023-03-02T14:37:28.461Z,10.44
2023-03-02T14:39:54.171Z,10.56
2023-03-02T14:42:19.074Z,10.56
2023-03-02T14:44:42.242Z,10.52
2023-03-02T14:47:03.792Z,10.53
2023-03-02T14:49:25.605Z,10.55
2023-03-02T14:52:05.863Z,10.53
2023-03-02T14:54:36.530Z,10.53
2023-03-02T14:56:58.048Z,10.51
2023-03-02T14:59:19.489Z,10.52
2023-03-02T15:01:43.606Z,10.47
2023-03-02T15:04:05.189Z,10.53
2023-03-02T15:06:29.699Z,10.51
2023-03-02T15:08:51.265Z,10.48
2023-03-02T15:11:12.703Z,10.47
2023-03-02T15:13:34.186Z,10.55
2023-03-02T15:15:55.815Z,10.49
2023-03-02T15:18:19.832Z,10.48
2023-03-02T15:20:41.424Z,10.49
2023-03-02T15:23:03.389Z,10.53
2023-03-02T15:25:26.049Z,10.51
2023-03-02T15:27:47.611Z,10.44
2023-03-02T15:30:09.820Z,10.37
2023-03-02T15:32:31.330Z,10.33
2023-03-02T15:34:52.805Z,10.19
2023-03-02T15:37:14.608Z,10.15
2023-03-02T15:39:36.062Z,10.24
2023-03-02T15:41:57.503Z,10.17
2023-03-02T15:44:22.960Z,10.18
2023-03-02T15:46:44.529Z,10.17
2023-03-02T15:49:06.169Z,10.10
2023-03-02T15:51:27.662Z,10.10
2023-03-02T15:53:49.127Z,10.00
2023-03-02T15:56:13.881Z,10.12
2023-03-02T15:58:35.571Z,10.00
2023-03-02T16:00:57.075Z,10.11
2023-03-02T16:03:19.334Z,10.00
2023-03-02T16:05:41.610Z,9.96
2023-03-02T16:08:03.061Z,9.99
2023-03-02T16:10:26.841Z,10.12
2023-03-02T16:12:48.310Z,10.03
2023-03-02T16:15:10.318Z,9.91
2023-03-02T16:17:31.776Z,9.95
2023-03-02T16:19:53.301Z,9.86
2023-03-02T16:22:15.021Z,9.80
2023-03-02T16:24:36.493Z,9.80
2023-03-02T16:27:03.033Z,9.79
2023-03-02T16:29:24.542Z,9.69
2023-03-02T16:31:46.977Z,9.73
2023-03-02T16:34:09.351Z,9.73
2023-03-02T16:36:30.807Z,9.83
2023-03-02T16:38:52.757Z,9.66
2023-03-02T16:41:19.457Z,9.42
2023-03-02T16:43:51.337Z,9.34
2023-03-02T16:46:13.074Z,9.31
2023-03-02T16:48:34.610Z,9.29
2023-03-02T16:50:57.143Z,9.23
2023-03-02T16:53:20.227Z,9.08
2023-03-02T16:55:41.706Z,9.21
2023-03-02T16:58:03.167Z,9.24
2023-03-02T17:00:25.302Z,9.08
2023-03-02T17:02:46.978Z,9.02
2023-03-02T17:05:09.164Z,8.89
2023-03-02T17:07:30.605Z,8.86
2023-03-02T17:09:52.101Z,8.74
2023-03-02T17:12:13.526Z,8.56
2023-03-02T17:14:34.971Z,8.56
2023-03-02T17:16:56.942Z,8.43
2023-03-02T17:19:18.454Z,8.21
2023-03-02T17:21:39.888Z,8.12
2023-03-02T17:24:01.353Z,8.05
2023-03-02T17:26:22.799Z,7.87
2023-03-02T17:28:44.342Z,7.74
2023-03-02T17:31:06.481Z,7.50
2023-03-02T17:33:29.543Z,7.44
2023-03-02T17:35:52.092Z,7.36
2023-03-02T17:38:14.539Z,7.32
2023-03-02T17:40:36.038Z,7.29
2023-03-02T17:42:57.949Z,7.23
2023-03-02T17:45:22.456Z,7.02
2023-03-02T17:47:43.995Z,6.98
2023-03-02T17:50:05.924Z,6.89
2023-03-02T17:52:27.652Z,6.77
2023-03-02T17:54:49.442Z,6.59
2023-03-02T17:57:11.970Z,6.40
2023-03-02T17:59:33.406Z,6.32
2023-03-02T18:01:55.468Z,6.18
2023-03-02T18:04:17.020Z,6.12
2023-03-02T18:06:38.524Z,6.02
2023-03-02T18:09:00.035Z,6.00
2023-03-02T18:11:23.507Z,5.95
2023-03-02T18:13:46.457Z,5.81
2023-03-02T18:16:08.701Z,5.76
2023-03-02T18:18:30.199Z,5.84
2023-03-02T18:20:54.067Z,5.79
2023-03-02T18:23:15.698Z,5.80
2023-03-02T18:25:37.204Z,5.80
2023-03-02T18:27:58.811Z,5.59
2023-03-02T18:30:21.540Z,5.60
2023-03-02T18:32:43.433Z,5.38
2023-03-02T18:35:05.289Z,5.38
2023-03-02T18:37:26.812Z,5.30
2023-03-02T18:39:48.390Z,5.19
2023-03-02T18:42:12.501Z,5.19
2023-03-02T18:44:34.455Z,5.27
2023-03-02T18:46:56.100Z,5.20
2023-03-02T18:49:17.608Z,4.94
2023-03-02T18:51:39.123Z,4.81
2023-03-02T18:54:00.598Z,4.81
2023-03-02T18:56:22.387Z,4.83
2023-03-02T18:58:44.411Z,4.73
2023-03-02T19:01:05.988Z,4.54
2023-03-02T19:03:28.225Z,4.63
2023-03-02T19:05:49.686Z,4.59
2023-03-02T19:08:12.214Z,4.64
2023-03-02T19:10:33.674Z,4.63
2023-03-02T19:12:55.123Z,4.67
2023-03-02T19:15:16.707Z,4.58
2023-03-02T19:17:42.469Z,4.34
2023-03-02T19:20:04.784Z,4.27
2023-03-02T19:22:26.229Z,4.23
2023-03-02T19:24:47.775Z,4.18
2023-03-02T19:27:11.522Z,4.15
2023-03-02T19:29:33.089Z,4.20
2023-03-02T19:31:55.805Z,4.23
2023-03-02T19:34:17.414Z,4.26
2023-03-02T19:36:38.842Z,4.15
2023-03-02T19:39:00.324Z,4.11
2023-03-02T19:41:22.545Z,4.14
2023-03-02T19:43:45.881Z,3.87
2023-03-02T19:46:07.714Z,3.95
2023-03-02T19:48:29.858Z,4.00
2023-03-02T19:50:52.873Z,3.69
2023-03-02T19:53:17.077Z,3.56
2023-03-02T19:55:38.872Z,3.59
2023-03-02T19:58:01.860Z,3.61
2023-03-02T20:00:24.238Z,3.40
2023-03-02T20:02:47.269Z,3.45
2023-03-02T20:05:10.094Z,3.39
2023-03-02T20:07:31.603Z,3.43
2023-03-02T20:09:53.035Z,3.42
2023-03-02T20:12:15.868Z,3.39
2023-03-02T20:14:40.600Z,3.28
2023-03-02T20:17:03.331Z,3.36
2023-03-02T20:19:24.780Z,3.33
2023-03-02T20:21:46.237Z,3.29
2023-03-02T20:24:07.943Z,3.01
2023-03-02T20:26:29.615Z,3.08
2023-03-02T20:28:53.044Z,2.98
2023-03-02T20:31:16.165Z,2.87
2023-03-02T20:33:42.497Z,2.76
2023-03-02T20:36:05.273Z,2.77
2023-03-02T20:38:31.489Z,2.76
2023-03-02T20:40:53.579Z,2.79
2023-03-02T20:43:17.000Z,2.87
2023-03-02T20:45:38.792Z,2.78
2023-03-02T20:48:00.312Z,2.73
2023-03-02T20:50:26.534Z,2.76
2023-03-02T20:52:48.127Z,2.52
2023-03-02T20:55:10.372Z,2.49
2023-03-02T20:57:32.888Z,2.16
2023-03-02T20:59:54.460Z,2.36
2023-03-02T21:02:18.469Z,2.43
2023-03-02T21:04:41.665Z,2.53
2023-03-02T21:07:03.360Z,2.46
2023-03-02T21:09:24.905Z,2.29
2023-03-02T21:11:46.687Z,2.15
2023-03-02T21:14:08.417Z,2.16
2023-03-02T21:16:36.049Z,2.26
2023-03-02T21:18:57.908Z,2.29
2023-03-02T21:21:22.985Z,2.10
2023-03-02T21:23:46.998Z,2.09
2023-03-02T21:26:10.526Z,2.17
2023-03-02T21:28:31.992Z,2.08
2023-03-02T21:30:53.507Z,1.98
2023-03-02T21:33:15.033Z,1.98
2023-03-02T21:35:36.783Z,1.92
2023-03-02T21:37:59.739Z,2.01
2023-03-02T21:40:32.198Z,1.87
2023-03-02T21:42:54.780Z,1.72
2023-03-02T21:45:16.443Z,1.83
2023-03-02T21:47:41.288Z,1.84
2023-03-02T21:50:05.268Z,1.91
2023-03-02T21:52:28.023Z,1.76
2023-03-02T21:54:49.474Z,1.88
2023-03-02T21:57:11.071Z,1.79
2023-03-02T21:59:32.572Z,1.80
2023-03-02T22:01:54.083Z,1.85
2023-03-02T22:04:15.601Z,1.89
2023-03-02T22:06:37.724Z,1.82
2023-03-02T22:08:59.317Z,1.81
2023-03-02T22:11:34.066Z,1.63
2023-03-02T22:14:01.595Z,1.64
2023-03-02T22:16:34.866Z,1.56
2023-03-02T22:18:58.945Z,1.47
2023-03-02T22:21:52.928Z,1.53
2023-03-02T22:24:20.415Z,1.48
2023-03-02T22:26:44.548Z,1.38
2023-03-02T22:29:27.804Z,1.43
2023-03-02T22:31:51.414Z,1.31
2023-03-02T22:34:18.179Z,1.33
2023-03-02T22:36:40.842Z,1.35
2023-03-02T22:39:11.300Z,1.48
2023-03-02T22:41:32.756Z,1.47
2023-03-02T22:43:55.120Z,1.43
2023-03-02T22:46:20.572Z,1.41
2023-03-02T22:48:44.830Z,1.44
2023-03-02T22:51:13.913Z,1.43
2023-03-02T22:53:42.496Z,1.33
2023-03-02T22:56:21.305Z,1.06
2023-03-02T22:58:48.594Z,1.10
2023-03-02T23:01:23.305Z,1.07
2023-03-02T23:03:46.815Z,1.10
2023-03-02T23:06:25.212Z,1.09
2023-03-02T23:08:46.845Z,0.84
2023-03-02T23:11:16.000Z,0.96
2023-03-02T23:13:40.171Z,0.97
2023-03-02T23:16:02.004Z,0.95
2023-03-02T23:18:27.286Z,0.91
2023-03-02T23:20:49.289Z,0.83
2023-03-02T23:23:10.744Z,0.68
2023-03-02T23:25:32.604Z,0.69
2023-03-02T23:27:54.050Z,0.62
2023-03-02T23:30:18.245Z,0.71
2023-03-02T23:32:39.804Z,0.74
2023-03-02T23:35:01.291Z,0.54
2023-03-02T23:37:22.727Z,0.68
2023-03-02T23:39:46.094Z,0.68
2023-03-02T23:42:08.429Z,0.69
2023-03-02T23:44:29.881Z,0.58
2023-03-02T23:46:52.001Z,0.67
2023-03-02T23:49:13.626Z,0.71
2023-03-02T23:51:35.139Z,0.71
2023-03-02T23:53:56.618Z,0.64
2023-03-02T23:56:18.219Z,0.70
2023-03-02T23:58:40.034Z,0.64
